createdAt,value
2023-05-19T00:01:01.411Z,2.30
2023-05-19T00:03:31.680Z,2.60
2023-05-19T00:06:02.771Z,2.80
2023-05-19T00:08:32.507Z,2.53
2023-05-19T00:11:02.649Z,3.17
2023-05-19T00:13:31.006Z,2.53
2023-05-19T00:15:59.516Z,2.30
2023-05-19T00:18:29.710Z,3.00
2023-05-19T00:20:57.747Z,3.47
2023-05-19T00:23:25.873Z,2.80
2023-05-19T00:25:54.056Z,2.77
2023-05-19T00:28:23.414Z,2.53
2023-05-19T00:30:52.719Z,3.33
2023-05-19T00:33:20.673Z,2.93
2023-05-19T00:35:48.716Z,2.97
2023-05-19T00:38:16.729Z,3.03
2023-05-19T00:40:44.937Z,3.20
2023-05-19T00:43:13.415Z,3.20
2023-05-19T00:45:43.052Z,2.30
2023-05-19T00:48:11.086Z,2.60
2023-05-19T00:50:39.401Z,3.40
2023-05-19T00:53:07.526Z,3.53
2023-05-19T00:55:37.496Z,2.87
2023-05-19T00:58:06.485Z,3.00
2023-05-19T01:00:38.556Z,3.80
2023-05-19T01:03:11.524Z,2.97
2023-05-19T01:05:44.665Z,2.50
2023-05-19T01:08:13.228Z,2.90
2023-05-19T01:10:41.312Z,3.70
2023-05-19T01:13:10.000Z,3.30
2023-05-19T01:15:50.233Z,2.97
2023-05-19T01:18:30.429Z,3.13
2023-05-19T01:21:08.407Z,2.87
2023-05-19T01:23:44.925Z,2.83
2023-05-19T01:26:41.211Z,3.30
2023-05-19T01:29:24.533Z,3.07
2023-05-19T01:32:00.051Z,3.37
2023-05-19T01:34:30.446Z,2.80
2023-05-19T01:37:01.813Z,2.60
2023-05-19T01:39:30.984Z,3.57
2023-05-19T01:41:59.764Z,3.40
2023-05-19T01:44:30.197Z,2.93
2023-05-19T01:47:00.432Z,3.30
2023-05-19T01:49:28.501Z,3.30
2023-05-19T01:51:58.080Z,2.90
2023-05-19T01:54:26.142Z,3.50
2023-05-19T01:57:01.128Z,3.40
2023-05-19T01:59:43.085Z,3.17
2023-05-19T02:02:26.894Z,3.23
2023-05-19T02:05:03.024Z,3.30
2023-05-19T02:07:38.382Z,3.40
2023-05-19T02:10:08.140Z,3.50
2023-05-19T02:12:37.685Z,3.67
2023-05-19T02:15:08.523Z,3.43
2023-05-19T02:17:41.367Z,4.17
2023-05-19T02:20:11.937Z,3.37
2023-05-19T02:22:40.139Z,3.77
2023-05-19T02:25:08.997Z,3.23
2023-05-19T02:27:39.096Z,3.97
2023-05-19T02:30:09.784Z,3.53
2023-05-19T02:32:39.638Z,4.43
2023-05-19T02:35:08.452Z,3.80
2023-05-19T02:37:36.470Z,3.83
2023-05-19T02:40:05.170Z,3.90
2023-05-19T02:42:33.237Z,3.60
2023-05-19T02:45:01.791Z,3.57
2023-05-19T02:47:29.933Z,3.20
2023-05-19T02:49:59.301Z,3.77
2023-05-19T02:52:27.356Z,4.00
2023-05-19T02:54:55.395Z,3.30
2023-05-19T02:57:24.106Z,3.33
2023-05-19T02:59:52.149Z,4.73
2023-05-19T03:02:20.170Z,3.27
2023-05-19T03:04:48.311Z,3.47
2023-05-19T03:07:17.668Z,4.03
2023-05-19T03:09:45.703Z,3.33
2023-05-19T03:12:13.724Z,3.73
2023-05-19T03:14:42.330Z,2.83
2023-05-19T03:17:10.682Z,3.53
2023-05-19T03:19:38.888Z,3.87
2023-05-19T03:22:06.891Z,3.80
2023-05-19T03:24:37.488Z,3.93
2023-05-19T03:27:06.335Z,3.73
2023-05-19T03:29:34.524Z,3.13
2023-05-19T03:32:02.587Z,4.23
2023-05-19T03:34:32.623Z,4.27
2023-05-19T03:37:00.689Z,4.10
2023-05-19T03:39:28.691Z,4.30
2023-05-19T03:41:58.008Z,3.60
2023-05-19T03:44:26.129Z,5.03
2023-05-19T03:46:54.207Z,4.20
2023-05-19T03:49:42.188Z,3.43
2023-05-19T03:52:19.020Z,4.07
2023-05-19T03:54:54.350Z,3.40
2023-05-19T03:57:23.752Z,3.80
2023-05-19T03:59:51.838Z,4.47
2023-05-19T04:02:25.006Z,3.73
2023-05-19T04:04:53.762Z,4.33
2023-05-19T04:07:21.860Z,3.90
2023-05-19T04:09:50.951Z,4.03
2023-05-19T04:12:18.955Z,4.37
2023-05-19T04:14:48.377Z,4.07
2023-05-19T04:17:16.473Z,3.67
2023-05-19T04:19:44.517Z,4.60
2023-05-19T04:22:12.497Z,4.97
2023-05-19T04:24:40.456Z,4.60
2023-05-19T04:27:11.902Z,4.17
2023-05-19T04:29:41.183Z,4.13
2023-05-19T04:32:11.017Z,5.20
2023-05-19T04:34:45.135Z,4.67
2023-05-19T04:37:17.271Z,4.50
2023-05-19T04:39:46.356Z,4.13
2023-05-19T04:42:19.145Z,4.20
2023-05-19T04:44:49.322Z,4.50
2023-05-19T04:47:22.229Z,4.30
2023-05-19T04:49:55.927Z,4.30
2023-05-19T04:52:25.312Z,4.40
2023-05-19T04:54:54.417Z,4.37
2023-05-19T04:57:23.976Z,3.80
2023-05-19T04:59:52.204Z,3.70
2023-05-19T05:02:22.553Z,3.60
2023-05-19T05:04:50.688Z,4.03
2023-05-19T05:07:18.743Z,3.60
2023-05-19T05:09:46.737Z,4.27
2023-05-19T05:12:16.317Z,3.50
2023-05-19T05:14:44.868Z,3.50
2023-05-19T05:17:13.813Z,4.17
2023-05-19T05:19:45.117Z,4.20
2023-05-19T05:22:14.182Z,3.20
2023-05-19T05:24:42.637Z,3.57
2023-05-19T05:27:10.750Z,3.67
2023-05-19T05:29:39.001Z,4.10
2023-05-19T05:32:09.161Z,4.20
2023-05-19T05:34:38.082Z,3.60
2023-05-19T05:37:07.808Z,4.20
2023-05-19T05:39:36.660Z,4.30
2023-05-19T05:42:04.830Z,4.13
2023-05-19T05:44:34.267Z,4.13
2023-05-19T05:47:04.685Z,4.57
2023-05-19T05:49:35.677Z,3.77
2023-05-19T05:52:06.598Z,4.67
2023-05-19T05:54:44.158Z,3.60
2023-05-19T05:57:13.795Z,4.07
2023-05-19T05:59:43.115Z,4.70
2023-05-19T06:02:11.326Z,4.33
2023-05-19T06:04:40.719Z,4.80
2023-05-19T06:07:08.951Z,4.00
2023-05-19T06:09:39.266Z,4.50
2023-05-19T06:12:11.260Z,5.10
2023-05-19T06:14:44.160Z,5.30
2023-05-19T06:17:18.151Z,4.60
2023-05-19T06:19:46.581Z,3.93
2023-05-19T06:22:14.772Z,3.70
2023-05-19T06:24:42.904Z,3.80
2023-05-19T06:27:12.463Z,4.03
2023-05-19T06:29:40.579Z,3.57
2023-05-19T06:32:10.004Z,3.67
2023-05-19T06:34:40.529Z,3.17
2023-05-19T06:37:08.814Z,3.80
2023-05-19T06:39:36.939Z,3.30
2023-05-19T06:42:05.501Z,3.73
2023-05-19T06:45:03.972Z,3.03
2023-05-19T06:47:32.018Z,3.83
2023-05-19T06:50:00.515Z,3.97
2023-05-19T06:52:32.404Z,2.83
2023-05-19T06:55:01.858Z,2.93
2023-05-19T06:57:31.352Z,2.70
2023-05-19T06:59:59.690Z,3.60
2023-05-19T07:02:29.676Z,2.70
2023-05-19T07:04:58.569Z,2.90
2023-05-19T07:07:27.739Z,3.00
2023-05-19T07:09:57.641Z,3.50
2023-05-19T07:12:27.475Z,2.93
2023-05-19T07:14:55.836Z,3.80
2023-05-19T07:17:24.817Z,2.90
2023-05-19T07:19:54.433Z,3.33
2023-05-19T07:22:24.164Z,3.00
2023-05-19T07:24:52.631Z,2.50
2023-05-19T07:27:20.901Z,2.20
2023-05-19T07:29:48.880Z,2.40
2023-05-19T07:32:16.930Z,2.90
2023-05-19T07:34:45.046Z,2.00
2023-05-19T07:37:14.463Z,2.13
2023-05-19T07:39:42.464Z,2.03
2023-05-19T07:42:11.180Z,1.60
2023-05-19T07:44:39.266Z,1.77
2023-05-19T07:47:07.285Z,2.10
2023-05-19T07:49:35.243Z,2.03
2023-05-19T07:52:04.028Z,2.20
2023-05-19T07:54:33.494Z,2.37
2023-05-19T07:57:01.524Z,1.47
2023-05-19T07:59:29.569Z,1.70
2023-05-19T08:01:57.615Z,1.80
2023-05-19T08:04:25.686Z,1.97
2023-05-19T08:06:54.088Z,1.63
2023-05-19T08:09:22.219Z,1.67
2023-05-19T08:11:51.842Z,1.50
2023-05-19T08:14:22.337Z,1.60
2023-05-19T08:16:50.416Z,2.10
2023-05-19T08:19:18.484Z,2.10
2023-05-19T08:21:46.501Z,2.30
2023-05-19T08:24:14.557Z,2.00
2023-05-19T08:26:42.606Z,1.70
2023-05-19T08:29:12.057Z,2.37
2023-05-19T08:31:40.195Z,1.90
2023-05-19T08:34:08.249Z,1.93
2023-05-19T08:36:36.269Z,1.50
2023-05-19T08:39:04.377Z,1.63
2023-05-19T08:41:32.373Z,1.40
2023-05-19T08:44:00.728Z,2.03
2023-05-19T08:46:30.710Z,1.90
2023-05-19T08:49:04.876Z,1.30
2023-05-19T08:51:40.192Z,1.30
2023-05-19T08:54:15.748Z,1.57
2023-05-19T08:56:45.419Z,1.30
2023-05-19T08:59:15.306Z,1.20
2023-05-19T09:01:46.543Z,1.20
2023-05-19T09:04:15.185Z,1.43
2023-05-19T09:06:45.019Z,1.70
2023-05-19T09:09:13.192Z,1.17
2023-05-19T09:11:41.225Z,1.67
2023-05-19T09:14:09.296Z,1.60
2023-05-19T09:16:37.406Z,1.50
2023-05-19T09:19:08.644Z,1.40
2023-05-19T09:21:37.427Z,1.67
2023-05-19T09:24:07.833Z,1.53
2023-05-19T09:26:39.867Z,1.53
2023-05-19T09:29:18.077Z,1.77
2023-05-19T09:31:51.249Z,1.53
2023-05-19T09:34:21.386Z,1.97
2023-05-19T09:36:50.547Z,1.60
2023-05-19T09:39:20.132Z,1.60
2023-05-19T09:41:48.572Z,1.37
2023-05-19T09:44:24.114Z,1.50
2023-05-19T09:46:53.142Z,1.53
2023-05-19T09:49:23.973Z,1.77
2023-05-19T09:51:54.638Z,1.97
2023-05-19T09:54:24.067Z,1.60
2023-05-19T09:56:59.925Z,2.27
2023-05-19T09:59:31.510Z,1.50
2023-05-19T10:02:02.323Z,1.63
2023-05-19T10:04:32.585Z,1.73
2023-05-19T10:07:00.646Z,1.53
2023-05-19T10:09:29.975Z,1.63
2023-05-19T10:11:59.585Z,1.73
2023-05-19T10:14:29.083Z,1.40
2023-05-19T10:16:59.718Z,1.90
2023-05-19T10:19:29.377Z,1.60
2023-05-19T10:21:58.894Z,2.20
2023-05-19T10:24:27.765Z,1.60
2023-05-19T10:26:59.529Z,2.03
2023-05-19T10:29:31.633Z,1.77
2023-05-19T10:32:04.355Z,1.60
2023-05-19T10:35:13.627Z,1.80
2023-05-19T10:37:50.610Z,1.67
2023-05-19T10:40:27.191Z,2.70
2023-05-19T10:43:11.754Z,1.77
2023-05-19T10:45:47.924Z,1.60
2023-05-19T10:48:16.724Z,1.60
2023-05-19T10:50:46.605Z,1.57
2023-05-19T10:53:22.202Z,1.60
2023-05-19T10:55:56.025Z,1.50
2023-05-19T10:58:39.280Z,1.60
2023-05-19T11:01:13.711Z,2.00
2023-05-19T11:03:47.544Z,2.13
2023-05-19T11:06:19.705Z,2.40
2023-05-19T11:08:54.567Z,1.87
2023-05-19T11:11:23.376Z,1.67
2023-05-19T11:13:56.553Z,2.00
2023-05-19T11:16:33.112Z,2.10
2023-05-19T11:19:01.509Z,1.73
2023-05-19T11:21:43.576Z,1.87
2023-05-19T11:24:36.939Z,2.13
2023-05-19T11:27:38.186Z,1.40
2023-05-19T11:30:14.859Z,1.63
2023-05-19T11:32:44.015Z,1.73
2023-05-19T11:35:12.215Z,1.50
2023-05-19T11:37:42.586Z,1.70
2023-05-19T11:40:14.216Z,2.20
2023-05-19T11:42:42.207Z,1.80
2023-05-19T11:45:11.461Z,1.70
2023-05-19T11:47:56.519Z,1.83
2023-05-19T11:50:28.143Z,1.80
2023-05-19T11:52:56.963Z,1.63
2023-05-19T11:55:26.344Z,1.60
2023-05-19T11:58:04.712Z,1.67
2023-05-19T12:00:38.110Z,1.63
2023-05-19T12:03:06.570Z,2.07
2023-05-19T12:05:40.940Z,2.10
2023-05-19T12:08:11.345Z,1.40
2023-05-19T12:10:41.229Z,2.03
2023-05-19T12:13:10.346Z,2.00
2023-05-19T12:15:39.838Z,2.10
2023-05-19T12:18:08.467Z,1.40
2023-05-19T12:20:37.273Z,2.00
2023-05-19T12:23:05.750Z,1.60
2023-05-19T12:25:34.091Z,1.67
2023-05-19T12:28:04.521Z,1.53
2023-05-19T12:30:34.311Z,2.00
2023-05-19T12:33:04.047Z,1.90
2023-05-19T12:35:33.591Z,2.43
2023-05-19T12:38:04.582Z,1.80
2023-05-19T12:40:32.744Z,1.77
2023-05-19T12:43:00.925Z,1.77
2023-05-19T12:45:34.751Z,1.70
2023-05-19T12:48:05.120Z,2.30
2023-05-19T12:50:34.113Z,1.67
2023-05-19T12:53:02.448Z,1.50
2023-05-19T12:55:31.041Z,2.17
2023-05-19T12:57:59.394Z,2.40
2023-05-19T13:00:30.954Z,1.40
2023-05-19T13:03:02.805Z,1.80
2023-05-19T13:05:33.649Z,1.63
2023-05-19T13:08:05.523Z,1.63
2023-05-19T13:10:35.408Z,1.63
2023-05-19T13:13:04.645Z,2.13
2023-05-19T13:15:36.350Z,2.10
2023-05-19T13:18:08.588Z,1.87
2023-05-19T13:20:37.078Z,1.50
2023-05-19T13:23:06.032Z,1.67
2023-05-19T13:25:34.966Z,1.50
2023-05-19T13:28:05.427Z,1.50
2023-05-19T13:30:34.502Z,1.40
2023-05-19T13:33:02.953Z,1.70
2023-05-19T13:35:36.937Z,1.73
2023-05-19T13:38:05.747Z,1.60
2023-05-19T13:40:34.784Z,1.70
2023-05-19T13:43:03.778Z,2.00
2023-05-19T13:45:31.833Z,1.83
2023-05-19T13:47:59.889Z,1.90
2023-05-19T13:50:27.991Z,1.60
2023-05-19T13:52:57.564Z,1.47
2023-05-19T13:55:27.257Z,1.57
2023-05-19T13:57:55.314Z,1.50
2023-05-19T14:00:23.891Z,1.47
2023-05-19T14:02:52.739Z,1.30
2023-05-19T14:05:21.248Z,1.33
2023-05-19T14:07:49.260Z,1.70
2023-05-19T14:10:18.586Z,1.80
2023-05-19T14:13:12.195Z,2.10
2023-05-19T14:15:37.599Z,1.70
2023-05-19T14:18:06.865Z,2.03
2023-05-19T14:20:35.574Z,1.60
2023-05-19T14:23:03.858Z,1.90
2023-05-19T14:25:33.188Z,1.60
2023-05-19T14:28:01.554Z,1.73
2023-05-19T14:30:29.946Z,1.60
2023-05-19T14:32:58.001Z,1.60
2023-05-19T14:35:26.656Z,1.53
2023-05-19T14:37:54.688Z,1.50
2023-05-19T14:40:22.717Z,1.53
2023-05-19T14:42:52.060Z,1.70
2023-05-19T14:45:20.063Z,1.70
2023-05-19T14:47:48.169Z,1.60
2023-05-19T14:50:16.266Z,1.67
2023-05-19T14:52:44.339Z,1.77
2023-05-19T14:55:12.374Z,2.10
2023-05-19T14:57:40.400Z,1.90
2023-05-19T15:00:10.845Z,1.40
2023-05-19T15:02:38.966Z,2.17
2023-05-19T15:05:07.441Z,1.90
2023-05-19T15:07:35.602Z,1.67
2023-05-19T15:10:04.224Z,1.70
2023-05-19T15:12:32.251Z,1.63
2023-05-19T15:15:00.330Z,1.63
2023-05-19T15:17:29.741Z,1.30
2023-05-19T15:19:57.957Z,2.00
2023-05-19T15:22:26.284Z,1.67
2023-05-19T15:24:54.253Z,1.60
2023-05-19T15:27:22.276Z,1.80
2023-05-19T15:29:50.283Z,2.17
2023-05-19T15:32:18.287Z,1.73
2023-05-19T15:34:47.666Z,1.53
2023-05-19T15:37:15.953Z,1.50
2023-05-19T15:39:43.940Z,1.70
2023-05-19T15:42:11.891Z,1.57
2023-05-19T15:44:39.923Z,1.20
2023-05-19T15:47:07.988Z,1.50
2023-05-19T15:49:35.991Z,1.63
2023-05-19T15:52:06.363Z,1.50
2023-05-19T15:54:34.369Z,1.50
2023-05-19T15:57:02.322Z,1.80
2023-05-19T15:59:30.372Z,1.50
2023-05-19T16:01:58.869Z,1.70
2023-05-19T16:04:26.949Z,1.50
2023-05-19T16:06:54.962Z,1.70
2023-05-19T16:09:24.305Z,1.30
2023-05-19T16:11:52.323Z,1.80
2023-05-19T16:14:20.413Z,1.33
2023-05-19T16:16:48.492Z,1.50
2023-05-19T16:19:16.673Z,1.47
2023-05-19T16:21:44.749Z,1.60
2023-05-19T16:24:12.733Z,2.37
2023-05-19T16:26:42.143Z,1.90
2023-05-19T16:29:10.105Z,1.60
2023-05-19T16:31:38.281Z,1.87
2023-05-19T16:34:06.345Z,1.80
2023-05-19T16:36:34.345Z,1.60
2023-05-19T16:39:02.394Z,2.13
2023-05-19T16:41:30.358Z,1.87
2023-05-19T16:44:00.008Z,1.60
2023-05-19T16:46:29.185Z,1.60
2023-05-19T16:48:58.630Z,1.30
2023-05-19T16:51:26.651Z,1.70
2023-05-19T16:53:54.585Z,1.63
2023-05-19T16:56:25.513Z,1.70
2023-05-19T16:58:54.576Z,2.00
2023-05-19T17:01:24.196Z,1.53
2023-05-19T17:03:52.285Z,2.13
2023-05-19T17:06:20.283Z,1.50
2023-05-19T17:08:48.269Z,1.87
2023-05-19T17:11:16.283Z,1.60
2023-05-19T17:13:46.236Z,1.43
2023-05-19T17:16:14.276Z,1.40
2023-05-19T17:18:43.940Z,1.60
2023-05-19T17:21:12.069Z,1.60
2023-05-19T17:23:40.076Z,1.53
2023-05-19T17:26:08.110Z,1.67
2023-05-19T17:28:36.194Z,1.50
2023-05-19T17:31:10.628Z,1.93
2023-05-19T17:33:38.738Z,1.30
2023-05-19T17:36:09.166Z,1.20
2023-05-19T17:38:40.169Z,1.73
2023-05-19T17:41:10.745Z,1.70
2023-05-19T17:43:39.179Z,1.70
2023-05-19T17:46:07.386Z,1.40
2023-05-19T17:48:36.208Z,1.70
2023-05-19T17:51:07.088Z,1.70
2023-05-19T17:53:37.365Z,1.83
2023-05-19T17:56:08.738Z,1.80
2023-05-19T17:58:37.406Z,1.37
2023-05-19T18:01:05.921Z,2.10
2023-05-19T18:03:34.599Z,1.40
2023-05-19T18:06:03.166Z,1.40
2023-05-19T18:08:32.404Z,1.80
2023-05-19T18:11:02.291Z,1.43
2023-05-19T18:13:30.814Z,1.40
2023-05-19T18:15:59.698Z,1.50
2023-05-19T18:18:27.839Z,1.33
2023-05-19T18:20:55.896Z,1.90
2023-05-19T18:23:23.885Z,1.57
2023-05-19T18:25:53.284Z,1.97
2023-05-19T18:28:22.705Z,1.80
2023-05-19T18:31:00.200Z,1.37
2023-05-19T18:33:30.056Z,1.37
2023-05-19T18:35:59.502Z,1.27
2023-05-19T18:38:27.590Z,1.60
2023-05-19T18:40:56.648Z,1.90
2023-05-19T18:43:26.121Z,1.30
2023-05-19T18:45:54.282Z,1.33
2023-05-19T18:48:22.646Z,1.70
2023-05-19T18:50:50.910Z,1.30
2023-05-19T18:53:19.020Z,1.70
2023-05-19T18:55:47.051Z,1.47
2023-05-19T18:58:15.085Z,1.80
2023-05-19T19:00:44.538Z,1.40
2023-05-19T19:03:12.852Z,1.20
2023-05-19T19:05:41.049Z,1.40
2023-05-19T19:08:09.116Z,1.73
2023-05-19T19:10:40.245Z,1.90
2023-05-19T19:13:08.254Z,1.40
2023-05-19T19:15:36.345Z,1.33
2023-05-19T19:18:07.446Z,1.57
2023-05-19T19:20:36.157Z,1.40
2023-05-19T19:23:06.557Z,1.60
2023-05-19T19:25:35.107Z,1.30
2023-05-19T19:28:03.571Z,1.20
2023-05-19T19:30:31.944Z,1.53
2023-05-19T19:33:00.299Z,2.20
2023-05-19T19:35:29.692Z,1.87
2023-05-19T19:37:58.460Z,1.63
2023-05-19T19:40:26.562Z,1.50
2023-05-19T19:42:54.616Z,1.73
2023-05-19T19:45:22.676Z,1.47
2023-05-19T19:47:51.665Z,1.57
2023-05-19T19:50:19.840Z,1.63
2023-05-19T19:52:49.257Z,2.10
2023-05-19T19:55:17.468Z,1.47
2023-05-19T19:57:49.015Z,2.00
2023-05-19T20:00:18.127Z,1.50
2023-05-19T20:05:19.838Z,1.50
2023-05-19T20:07:49.190Z,1.50
2023-05-19T20:10:17.207Z,1.20
2023-05-19T20:12:47.121Z,1.30
2023-05-19T20:15:15.930Z,1.40
2023-05-19T20:17:43.998Z,1.50
2023-05-19T20:20:13.150Z,1.27
2023-05-19T20:22:41.360Z,1.53
2023-05-19T20:25:11.128Z,1.40
2023-05-19T20:27:39.097Z,1.73
2023-05-19T20:30:08.420Z,1.53
2023-05-19T20:32:36.590Z,1.20
2023-05-19T20:35:04.830Z,1.70
2023-05-19T20:37:32.823Z,1.90
2023-05-19T20:40:00.821Z,1.90
2023-05-19T20:42:30.209Z,1.57
2023-05-19T20:44:58.461Z,1.70
2023-05-19T20:47:28.273Z,1.83
2023-05-19T20:49:58.783Z,1.77
2023-05-19T20:52:26.892Z,1.67
2023-05-19T20:54:54.976Z,1.53
2023-05-19T20:57:23.035Z,1.53
2023-05-19T20:59:52.368Z,1.20
2023-05-19T21:02:20.459Z,1.50
2023-05-19T21:04:49.638Z,2.00
2023-05-19T21:07:17.688Z,2.67
2023-05-19T21:09:46.517Z,2.07
2023-05-19T21:12:16.136Z,1.73
2023-05-19T21:14:44.151Z,1.77
2023-05-19T21:17:13.520Z,1.50
2023-05-19T21:19:41.590Z,1.63
2023-05-19T21:22:09.565Z,1.67
2023-05-19T21:24:37.633Z,1.50
2023-05-19T21:27:06.279Z,2.13
2023-05-19T21:29:34.292Z,1.90
2023-05-19T21:32:02.293Z,1.47
2023-05-19T21:34:31.697Z,1.50
2023-05-19T21:36:59.777Z,1.53
2023-05-19T21:39:27.866Z,2.57
2023-05-19T21:41:55.891Z,1.97
2023-05-19T21:44:25.156Z,1.77
2023-05-19T21:46:53.404Z,1.93
2023-05-19T21:49:21.689Z,1.70
2023-05-19T21:51:51.037Z,1.83
2023-05-19T21:54:19.041Z,1.73
2023-05-19T21:56:47.082Z,1.90
2023-05-19T21:59:15.081Z,2.30
2023-05-19T22:01:43.118Z,2.03
2023-05-19T22:04:11.412Z,2.00
2023-05-19T22:06:39.484Z,1.77
2023-05-19T22:09:09.109Z,1.90
2023-05-19T22:11:37.131Z,1.70
2023-05-19T22:14:05.124Z,2.00
2023-05-19T22:16:33.325Z,2.23
2023-05-19T22:19:01.344Z,1.33
2023-05-19T22:21:29.416Z,2.00
2023-05-19T22:23:57.455Z,1.90
2023-05-19T22:26:27.152Z,1.77
2023-05-19T22:28:55.804Z,1.80
2023-05-19T22:31:23.835Z,2.30
2023-05-19T22:33:51.873Z,1.87
2023-05-19T22:36:19.938Z,1.93
2023-05-19T22:38:47.901Z,1.70
2023-05-19T22:41:15.902Z,1.57
2023-05-19T22:43:45.233Z,1.57
2023-05-19T22:46:13.302Z,1.80
2023-05-19T22:48:41.312Z,1.90
2023-05-19T22:51:09.458Z,2.13
2023-05-19T22:53:37.425Z,2.13
2023-05-19T22:56:05.889Z,1.90
2023-05-19T22:58:33.922Z,1.93
2023-05-19T23:01:03.326Z,2.00
2023-05-19T23:03:31.348Z,2.00
2023-05-19T23:05:59.373Z,1.70
2023-05-19T23:08:27.424Z,1.90
2023-05-19T23:11:00.110Z,1.90
2023-05-19T23:13:28.106Z,1.87
2023-05-19T23:15:56.090Z,1.80
2023-05-19T23:18:25.489Z,2.00
2023-05-19T23:20:53.500Z,2.20
2023-05-19T23:23:21.475Z,1.53
2023-05-19T23:25:49.547Z,1.80
2023-05-19T23:28:17.942Z,2.47
2023-05-19T23:30:45.921Z,1.90
2023-05-19T23:33:13.947Z,1.83
2023-05-19T23:35:43.508Z,1.80
2023-05-19T23:38:11.507Z,2.13
2023-05-19T23:40:39.507Z,1.80
2023-05-19T23:43:07.616Z,1.90
2023-05-19T23:45:35.770Z,1.87
2023-05-19T23:48:03.865Z,2.57
2023-05-19T23:50:32.050Z,1.80
2023-05-19T23:53:01.767Z,2.60
2023-05-19T23:55:29.787Z,2.00
2023-05-19T23:57:57.808Z,1.70
